sensor_id;sensor_type;location;lat;lon;timestamp;P1;durP1;ratioP1;P2;durP2;ratioP2
9524;SDS011;15940;48.734;9.112;2022-11-20T00:02:19;3.83;;;3.13;;
9524;SDS011;15940;48.734;9.112;2022-11-20T00:04:46;3.87;;;3.40;;
9524;SDS011;15940;48.734;9.112;2022-11-20T00:07:14;3.47;;;3.17;;
9524;SDS011;15940;48.734;9.112;2022-11-20T00:09:42;4.73;;;3.43;;
9524;SDS011;15940;48.734;9.112;2022-11-20T00:12:09;4.60;;;3.40;;
9524;SDS011;15940;48.734;9.112;2022-11-20T00:14:36;3.47;;;3.17;;
9524;SDS011;15940;48.734;9.112;2022-11-20T00:17:02;3.77;;;3.47;;
9524;SDS011;15940;48.734;9.112;2022-11-20T00:19:29;3.93;;;3.53;;
9524;SDS011;15940;48.734;9.112;2022-11-20T00:21:56;4.10;;;3.50;;
9524;SDS011;15940;48.734;9.112;2022-11-20T00:24:25;3.30;;;3.00;;
9524;SDS011;15940;48.734;9.112;2022-11-20T00:26:52;4.07;;;3.50;;
9524;SDS011;15940;48.734;9.112;2022-11-20T00:29:19;3.77;;;3.47;;
9524;SDS011;15940;48.734;9.112;2022-11-20T00:31:45;3.93;;;3.57;;
9524;SDS011;15940;48.734;9.112;2022-11-20T00:34:12;5.47;;;3.67;;
9524;SDS011;15940;48.734;9.112;2022-11-20T00:36:40;3.83;;;3.50;;
9524;SDS011;15940;48.734;9.112;2022-11-20T00:39:07;3.70;;;3.43;;
9524;SDS011;15940;48.734;9.112;2022-11-20T00:45:17;3.63;;;3.33;;
9524;SDS011;15940;48.734;9.112;2022-11-20T00:47:44;5.07;;;3.30;;
9524;SDS011;15940;48.734;9.112;2022-11-20T00:50:11;3.63;;;3.20;;
9524;SDS011;15940;48.734;9.112;2022-11-20T00:52:38;5.20;;;3.50;;
9524;SDS011;15940;48.734;9.112;2022-11-20T00:55:05;3.97;;;3.50;;
9524;SDS011;15940;48.734;9.112;2022-11-20T00:57:33;3.33;;;3.03;;
9524;SDS011;15940;48.734;9.112;2022-11-20T00:59:59;2.90;;;2.70;;
9524;SDS011;15940;48.734;9.112;2022-11-20T01:02:28;3.27;;;3.00;;
9524;SDS011;15940;48.734;9.112;2022-11-20T01:04:55;3.97;;;3.10;;
9524;SDS011;15940;48.734;9.112;2022-11-20T01:07:22;4.00;;;3.20;;
9524;SDS011;15940;48.734;9.112;2022-11-20T01:09:49;5.60;;;3.20;;
9524;SDS011;15940;48.734;9.112;2022-11-20T01:12:15;3.23;;;2.93;;
9524;SDS011;15940;48.734;9.112;2022-11-20T01:14:42;3.07;;;2.77;;
9524;SDS011;15940;48.734;9.112;2022-11-20T01:17:09;3.07;;;2.77;;
9524;SDS011;15940;48.734;9.112;2022-11-20T01:19:38;10.13;;;3.30;;
9524;SDS011;15940;48.734;9.112;2022-11-20T01:22:05;2.90;;;2.50;;
9524;SDS011;15940;48.734;9.112;2022-11-20T01:24:32;3.37;;;2.70;;
9524;SDS011;15940;48.734;9.112;2022-11-20T01:26:59;3.10;;;2.80;;
9524;SDS011;15940;48.734;9.112;2022-11-20T01:29:26;4.80;;;3.37;;
9524;SDS011;15940;48.734;9.112;2022-11-20T01:31:53;5.00;;;3.00;;
9524;SDS011;15940;48.734;9.112;2022-11-20T01:34:20;3.03;;;2.83;;
9524;SDS011;15940;48.734;9.112;2022-11-20T01:36:50;3.43;;;3.07;;
9524;SDS011;15940;48.734;9.112;2022-11-20T01:39:19;3.70;;;2.67;;
9524;SDS011;15940;48.734;9.112;2022-11-20T01:41:47;4.80;;;2.70;;
9524;SDS011;15940;48.734;9.112;2022-11-20T01:44:42;4.43;;;3.00;;
9524;SDS011;15940;48.734;9.112;2022-11-20T01:47:17;2.83;;;2.63;;
9524;SDS011;15940;48.734;9.112;2022-11-20T01:49:52;4.83;;;3.27;;
9524;SDS011;15940;48.734;9.112;2022-11-20T01:52:27;3.57;;;3.20;;
9524;SDS011;15940;48.734;9.112;2022-11-20T01:55:01;3.33;;;2.90;;
9524;SDS011;15940;48.734;9.112;2022-11-20T01:57:33;2.90;;;2.67;;
9524;SDS011;15940;48.734;9.112;2022-11-20T02:00:04;3.03;;;2.80;;
9524;SDS011;15940;48.734;9.112;2022-11-20T02:02:34;3.10;;;2.80;;
9524;SDS011;15940;48.734;9.112;2022-11-20T02:05:03;3.43;;;3.03;;
9524;SDS011;15940;48.734;9.112;2022-11-20T02:07:40;3.30;;;3.00;;
9524;SDS011;15940;48.734;9.112;2022-11-20T02:10:07;4.53;;;3.20;;
9524;SDS011;15940;48.734;9.112;2022-11-20T02:12:34;3.57;;;3.00;;
9524;SDS011;15940;48.734;9.112;2022-11-20T02:15:19;2.83;;;2.63;;
9524;SDS011;15940;48.734;9.112;2022-11-20T02:17:46;3.10;;;2.80;;
9524;SDS011;15940;48.734;9.112;2022-11-20T02:20:14;3.53;;;2.77;;
9524;SDS011;15940;48.734;9.112;2022-11-20T02:22:44;2.63;;;2.40;;
9524;SDS011;15940;48.734;9.112;2022-11-20T02:25:20;3.13;;;2.80;;
9524;SDS011;15940;48.734;9.112;2022-11-20T02:27:48;2.90;;;2.70;;
9524;SDS011;15940;48.734;9.112;2022-11-20T02:30:15;2.90;;;2.70;;
9524;SDS011;15940;48.734;9.112;2022-11-20T02:32:43;2.90;;;2.47;;
9524;SDS011;15940;48.734;9.112;2022-11-20T02:38:07;3.93;;;2.60;;
9524;SDS011;15940;48.734;9.112;2022-11-20T02:40:37;3.13;;;2.93;;
9524;SDS011;15940;48.734;9.112;2022-11-20T02:43:04;3.17;;;2.87;;
9524;SDS011;15940;48.734;9.112;2022-11-20T02:45:31;3.20;;;2.90;;
9524;SDS011;15940;48.734;9.112;2022-11-20T02:47:58;5.33;;;2.97;;
9524;SDS011;15940;48.734;9.112;2022-11-20T02:50:25;6.53;;;3.13;;
9524;SDS011;15940;48.734;9.112;2022-11-20T02:52:52;3.37;;;3.00;;
9524;SDS011;15940;48.734;9.112;2022-11-20T02:55:19;2.87;;;2.67;;
9524;SDS011;15940;48.734;9.112;2022-11-20T02:57:47;3.80;;;2.90;;
9524;SDS011;15940;48.734;9.112;2022-11-20T03:00:14;3.37;;;2.97;;
9524;SDS011;15940;48.734;9.112;2022-11-20T03:02:42;2.70;;;2.50;;
9524;SDS011;15940;48.734;9.112;2022-11-20T03:05:09;4.77;;;2.70;;
9524;SDS011;15940;48.734;9.112;2022-11-20T03:07:36;2.87;;;2.60;;
9524;SDS011;15940;48.734;9.112;2022-11-20T03:10:03;3.20;;;2.90;;
9524;SDS011;15940;48.734;9.112;2022-11-20T03:12:31;5.43;;;3.00;;
9524;SDS011;15940;48.734;9.112;2022-11-20T03:15:00;2.73;;;2.53;;
9524;SDS011;15940;48.734;9.112;2022-11-20T03:17:26;4.63;;;3.13;;
9524;SDS011;15940;48.734;9.112;2022-11-20T03:19:54;3.77;;;3.10;;
9524;SDS011;15940;48.734;9.112;2022-11-20T03:22:21;3.23;;;3.00;;
9524;SDS011;15940;48.734;9.112;2022-11-20T03:24:48;3.37;;;3.00;;
9524;SDS011;15940;48.734;9.112;2022-11-20T03:27:16;4.60;;;3.73;;
9524;SDS011;15940;48.734;9.112;2022-11-20T03:29:43;4.50;;;3.60;;
9524;SDS011;15940;48.734;9.112;2022-11-20T03:32:11;3.20;;;2.90;;
9524;SDS011;15940;48.734;9.112;2022-11-20T03:34:38;3.40;;;3.10;;
9524;SDS011;15940;48.734;9.112;2022-11-20T03:37:05;3.97;;;3.03;;
9524;SDS011;15940;48.734;9.112;2022-11-20T03:39:32;7.13;;;3.80;;
9524;SDS011;15940;48.734;9.112;2022-11-20T03:41:59;4.50;;;3.53;;
9524;SDS011;15940;48.734;9.112;2022-11-20T03:44:26;4.03;;;3.60;;
9524;SDS011;15940;48.734;9.112;2022-11-20T03:46:53;4.40;;;4.00;;
9524;SDS011;15940;48.734;9.112;2022-11-20T03:49:21;4.37;;;3.60;;
9524;SDS011;15940;48.734;9.112;2022-11-20T03:51:48;5.30;;;3.80;;
9524;SDS011;15940;48.734;9.112;2022-11-20T03:54:15;5.13;;;3.93;;
9524;SDS011;15940;48.734;9.112;2022-11-20T03:56:42;4.80;;;3.70;;
9524;SDS011;15940;48.734;9.112;2022-11-20T03:59:09;4.33;;;3.93;;
9524;SDS011;15940;48.734;9.112;2022-11-20T04:01:36;4.80;;;4.10;;
9524;SDS011;15940;48.734;9.112;2022-11-20T04:04:03;5.17;;;4.50;;
9524;SDS011;15940;48.734;9.112;2022-11-20T04:06:33;5.00;;;4.50;;
9524;SDS011;15940;48.734;9.112;2022-11-20T04:09:02;6.87;;;4.47;;
9524;SDS011;15940;48.734;9.112;2022-11-20T04:11:30;5.63;;;4.10;;
9524;SDS011;15940;48.734;9.112;2022-11-20T04:13:59;4.30;;;3.90;;
9524;SDS011;15940;48.734;9.112;2022-11-20T04:16:29;5.03;;;4.53;;
9524;SDS011;15940;48.734;9.112;2022-11-20T04:18:59;5.70;;;4.23;;
9524;SDS011;15940;48.734;9.112;2022-11-20T04:21:29;5.20;;;3.90;;
9524;SDS011;15940;48.734;9.112;2022-11-20T04:23:57;6.20;;;4.37;;
9524;SDS011;15940;48.734;9.112;2022-11-20T04:26:25;6.23;;;4.70;;
9524;SDS011;15940;48.734;9.112;2022-11-20T04:28:55;4.20;;;3.80;;
9524;SDS011;15940;48.734;9.112;2022-11-20T04:31:24;4.70;;;4.00;;
9524;SDS011;15940;48.734;9.112;2022-11-20T04:33:54;4.47;;;3.60;;
9524;SDS011;15940;48.734;9.112;2022-11-20T04:36:21;4.70;;;4.03;;
9524;SDS011;15940;48.734;9.112;2022-11-20T04:38:51;5.37;;;4.13;;
9524;SDS011;15940;48.734;9.112;2022-11-20T04:41:21;4.70;;;3.70;;
9524;SDS011;15940;48.734;9.112;2022-11-20T04:43:50;3.73;;;3.10;;
9524;SDS011;15940;48.734;9.112;2022-11-20T04:46:24;3.90;;;3.50;;
9524;SDS011;15940;48.734;9.112;2022-11-20T04:48:52;3.97;;;3.30;;
9524;SDS011;15940;48.734;9.112;2022-11-20T04:51:19;4.57;;;3.77;;
9524;SDS011;15940;48.734;9.112;2022-11-20T04:53:46;7.40;;;3.83;;
9524;SDS011;15940;48.734;9.112;2022-11-20T04:56:13;4.33;;;3.80;;
9524;SDS011;15940;48.734;9.112;2022-11-20T04:58:48;4.63;;;3.93;;
9524;SDS011;15940;48.734;9.112;2022-11-20T05:01:16;5.33;;;4.10;;
9524;SDS011;15940;48.734;9.112;2022-11-20T05:03:46;4.23;;;3.83;;
9524;SDS011;15940;48.734;9.112;2022-11-20T05:06:14;4.40;;;3.97;;
9524;SDS011;15940;48.734;9.112;2022-11-20T05:08:43;4.03;;;3.67;;
9524;SDS011;15940;48.734;9.112;2022-11-20T05:11:11;3.30;;;3.00;;
9524;SDS011;15940;48.734;9.112;2022-11-20T05:13:40;3.73;;;3.43;;
9524;SDS011;15940;48.734;9.112;2022-11-20T05:16:10;4.83;;;3.50;;
9524;SDS011;15940;48.734;9.112;2022-11-20T05:18:38;3.40;;;3.10;;
9524;SDS011;15940;48.734;9.112;2022-11-20T05:21:07;4.47;;;3.10;;
9524;SDS011;15940;48.734;9.112;2022-11-20T05:23:35;3.50;;;3.20;;
9524;SDS011;15940;48.734;9.112;2022-11-20T05:26:02;3.73;;;3.23;;
9524;SDS011;15940;48.734;9.112;2022-11-20T05:28:31;3.47;;;3.20;;
9524;SDS011;15940;48.734;9.112;2022-11-20T05:31:03;3.07;;;2.80;;
9524;SDS011;15940;48.734;9.112;2022-11-20T05:33:33;3.10;;;2.87;;
9524;SDS011;15940;48.734;9.112;2022-11-20T05:36:01;3.17;;;2.97;;
9524;SDS011;15940;48.734;9.112;2022-11-20T05:38:29;3.03;;;2.83;;
9524;SDS011;15940;48.734;9.112;2022-11-20T05:41:02;3.70;;;3.10;;
9524;SDS011;15940;48.734;9.112;2022-11-20T05:43:31;3.33;;;3.03;;
9524;SDS011;15940;48.734;9.112;2022-11-20T05:45:59;3.07;;;2.77;;
9524;SDS011;15940;48.734;9.112;2022-11-20T05:48:26;4.13;;;2.70;;
9524;SDS011;15940;48.734;9.112;2022-11-20T05:50:55;4.93;;;2.70;;
9524;SDS011;15940;48.734;9.112;2022-11-20T05:53:24;5.23;;;2.80;;
9524;SDS011;15940;48.734;9.112;2022-11-20T05:55:57;4.00;;;2.90;;
9524;SDS011;15940;48.734;9.112;2022-11-20T05:58:25;2.93;;;2.60;;
9524;SDS011;15940;48.734;9.112;2022-11-20T06:00:53;3.00;;;2.70;;
9524;SDS011;15940;48.734;9.112;2022-11-20T06:03:20;2.10;;;2.00;;
9524;SDS011;15940;48.734;9.112;2022-11-20T06:05:47;4.07;;;3.33;;
9524;SDS011;15940;48.734;9.112;2022-11-20T06:08:15;2.70;;;2.50;;
9524;SDS011;15940;48.734;9.112;2022-11-20T06:10:42;2.17;;;1.97;;
9524;SDS011;15940;48.734;9.112;2022-11-20T06:13:09;2.80;;;2.60;;
9524;SDS011;15940;48.734;9.112;2022-11-20T06:15:36;2.60;;;2.40;;
9524;SDS011;15940;48.734;9.112;2022-11-20T06:18:03;2.90;;;2.67;;
9524;SDS011;15940;48.734;9.112;2022-11-20T06:20:30;4.00;;;2.20;;
9524;SDS011;15940;48.734;9.112;2022-11-20T06:22:57;2.90;;;2.70;;
9524;SDS011;15940;48.734;9.112;2022-11-20T06:25:26;3.00;;;2.70;;
9524;SDS011;15940;48.734;9.112;2022-11-20T06:27:53;4.40;;;2.40;;
9524;SDS011;15940;48.734;9.112;2022-11-20T06:30:19;2.70;;;2.50;;
9524;SDS011;15940;48.734;9.112;2022-11-20T06:32:46;3.13;;;2.83;;
9524;SDS011;15940;48.734;9.112;2022-11-20T06:35:13;3.90;;;2.73;;
9524;SDS011;15940;48.734;9.112;2022-11-20T06:37:40;3.20;;;2.30;;
9524;SDS011;15940;48.734;9.112;2022-11-20T06:40:09;2.40;;;2.20;;
9524;SDS011;15940;48.734;9.112;2022-11-20T06:42:38;2.77;;;2.57;;
9524;SDS011;15940;48.734;9.112;2022-11-20T06:45:06;2.60;;;2.40;;
9524;SDS011;15940;48.734;9.112;2022-11-20T06:47:34;2.53;;;2.33;;
9524;SDS011;15940;48.734;9.112;2022-11-20T06:50:01;3.23;;;2.73;;
9524;SDS011;15940;48.734;9.112;2022-11-20T06:52:29;2.77;;;2.57;;
9524;SDS011;15940;48.734;9.112;2022-11-20T06:54:56;2.80;;;2.60;;
9524;SDS011;15940;48.734;9.112;2022-11-20T06:57:23;2.97;;;2.70;;
9524;SDS011;15940;48.734;9.112;2022-11-20T06:59:51;3.20;;;2.83;;
9524;SDS011;15940;48.734;9.112;2022-11-20T07:02:18;3.60;;;2.50;;
9524;SDS011;15940;48.734;9.112;2022-11-20T07:04:45;2.80;;;2.60;;
9524;SDS011;15940;48.734;9.112;2022-11-20T07:07:12;2.67;;;2.47;;
9524;SDS011;15940;48.734;9.112;2022-11-20T07:09:39;3.07;;;2.87;;
9524;SDS011;15940;48.734;9.112;2022-11-20T07:12:06;2.87;;;2.67;;
9524;SDS011;15940;48.734;9.112;2022-11-20T07:14:33;3.93;;;2.80;;
9524;SDS011;15940;48.734;9.112;2022-11-20T07:17:01;2.60;;;2.40;;
9524;SDS011;15940;48.734;9.112;2022-11-20T07:19:28;2.93;;;2.67;;
9524;SDS011;15940;48.734;9.112;2022-11-20T07:21:55;2.70;;;2.50;;
9524;SDS011;15940;48.734;9.112;2022-11-20T07:24:22;3.67;;;2.93;;
9524;SDS011;15940;48.734;9.112;2022-11-20T07:26:49;2.90;;;2.60;;
9524;SDS011;15940;48.734;9.112;2022-11-20T07:29:16;3.40;;;2.70;;
9524;SDS011;15940;48.734;9.112;2022-11-20T07:31:43;2.60;;;2.40;;
9524;SDS011;15940;48.734;9.112;2022-11-20T07:34:11;2.90;;;2.70;;
9524;SDS011;15940;48.734;9.112;2022-11-20T07:36:39;2.77;;;2.33;;
9524;SDS011;15940;48.734;9.112;2022-11-20T07:39:06;2.33;;;2.10;;
9524;SDS011;15940;48.734;9.112;2022-11-20T07:41:33;2.80;;;2.20;;
9524;SDS011;15940;48.734;9.112;2022-11-20T07:44:00;2.37;;;2.10;;
9524;SDS011;15940;48.734;9.112;2022-11-20T07:46:27;3.20;;;2.63;;
9524;SDS011;15940;48.734;9.112;2022-11-20T07:48:54;2.33;;;2.10;;
9524;SDS011;15940;48.734;9.112;2022-11-20T07:51:22;3.03;;;2.20;;
9524;SDS011;15940;48.734;9.112;2022-11-20T07:53:50;2.77;;;2.30;;
9524;SDS011;15940;48.734;9.112;2022-11-20T07:56:17;2.23;;;2.10;;
9524;SDS011;15940;48.734;9.112;2022-11-20T07:58:44;4.30;;;2.43;;
9524;SDS011;15940;48.734;9.112;2022-11-20T08:01:11;2.20;;;2.00;;
9524;SDS011;15940;48.734;9.112;2022-11-20T08:03:38;2.10;;;1.87;;
9524;SDS011;15940;48.734;9.112;2022-11-20T08:06:06;2.20;;;2.10;;
9524;SDS011;15940;48.734;9.112;2022-11-20T08:08:35;2.37;;;2.03;;
9524;SDS011;15940;48.734;9.112;2022-11-20T08:11:04;2.23;;;2.00;;
9524;SDS011;15940;48.734;9.112;2022-11-20T08:13:48;2.07;;;1.97;;
9524;SDS011;15940;48.734;9.112;2022-11-20T08:16:33;2.90;;;2.20;;
9524;SDS011;15940;48.734;9.112;2022-11-20T08:19:00;2.30;;;2.10;;
9524;SDS011;15940;48.734;9.112;2022-11-20T08:21:27;2.50;;;2.30;;
9524;SDS011;15940;48.734;9.112;2022-11-20T08:23:55;2.30;;;2.10;;
9524;SDS011;15940;48.734;9.112;2022-11-20T08:26:23;2.10;;;2.00;;
9524;SDS011;15940;48.734;9.112;2022-11-20T08:28:52;2.13;;;1.93;;
9524;SDS011;15940;48.734;9.112;2022-11-20T08:31:20;1.83;;;1.73;;
9524;SDS011;15940;48.734;9.112;2022-11-20T08:33:48;3.77;;;2.10;;
9524;SDS011;15940;48.734;9.112;2022-11-20T08:36:15;2.73;;;2.00;;
9524;SDS011;15940;48.734;9.112;2022-11-20T08:38:46;1.80;;;1.70;;
9524;SDS011;15940;48.734;9.112;2022-11-20T08:41:15;2.20;;;2.00;;
9524;SDS011;15940;48.734;9.112;2022-11-20T08:43:54;1.90;;;1.80;;
9524;SDS011;15940;48.734;9.112;2022-11-20T08:46:23;1.90;;;1.80;;
9524;SDS011;15940;48.734;9.112;2022-11-20T08:48:51;2.07;;;1.70;;
9524;SDS011;15940;48.734;9.112;2022-11-20T08:51:19;3.13;;;1.80;;
9524;SDS011;15940;48.734;9.112;2022-11-20T08:53:46;2.20;;;1.63;;
9524;SDS011;15940;48.734;9.112;2022-11-20T08:56:15;1.73;;;1.63;;
9524;SDS011;15940;48.734;9.112;2022-11-20T08:58:43;2.33;;;2.00;;
9524;SDS011;15940;48.734;9.112;2022-11-20T09:01:10;1.70;;;1.60;;
9524;SDS011;15940;48.734;9.112;2022-11-20T09:03:37;2.17;;;1.70;;
9524;SDS011;15940;48.734;9.112;2022-11-20T09:06:04;1.77;;;1.60;;
9524;SDS011;15940;48.734;9.112;2022-11-20T09:08:33;1.50;;;1.40;;
9524;SDS011;15940;48.734;9.112;2022-11-20T09:11:01;3.17;;;1.80;;
9524;SDS011;15940;48.734;9.112;2022-11-20T09:13:30;1.63;;;1.53;;
9524;SDS011;15940;48.734;9.112;2022-11-20T09:16:00;1.40;;;1.40;;
9524;SDS011;15940;48.734;9.112;2022-11-20T09:18:29;1.93;;;1.70;;
9524;SDS011;15940;48.734;9.112;2022-11-20T09:20:57;1.70;;;1.60;;
9524;SDS011;15940;48.734;9.112;2022-11-20T09:23:26;1.70;;;1.60;;
9524;SDS011;15940;48.734;9.112;2022-11-20T09:25:57;2.70;;;2.50;;
9524;SDS011;15940;48.734;9.112;2022-11-20T09:28:27;1.53;;;1.43;;
9524;SDS011;15940;48.734;9.112;2022-11-20T09:30:55;2.40;;;1.63;;
9524;SDS011;15940;48.734;9.112;2022-11-20T09:33:22;1.40;;;1.30;;
9524;SDS011;15940;48.734;9.112;2022-11-20T09:35:49;1.50;;;1.40;;
9524;SDS011;15940;48.734;9.112;2022-11-20T09:38:16;1.43;;;1.33;;
9524;SDS011;15940;48.734;9.112;2022-11-20T09:40:44;1.13;;;1.13;;
9524;SDS011;15940;48.734;9.112;2022-11-20T09:43:18;1.23;;;1.10;;
9524;SDS011;15940;48.734;9.112;2022-11-20T09:45:58;0.90;;;0.90;;
9524;SDS011;15940;48.734;9.112;2022-11-20T09:48:36;1.33;;;1.23;;
9524;SDS011;15940;48.734;9.112;2022-11-20T09:51:24;1.03;;;0.97;;
9524;SDS011;15940;48.734;9.112;2022-11-20T09:54:06;1.00;;;1.00;;
9524;SDS011;15940;48.734;9.112;2022-11-20T09:56:42;1.60;;;1.50;;
9524;SDS011;15940;48.734;9.112;2022-11-20T09:59:18;1.10;;;1.10;;
9524;SDS011;15940;48.734;9.112;2022-11-20T10:02:08;1.03;;;1.00;;
9524;SDS011;15940;48.734;9.112;2022-11-20T10:04:47;1.00;;;0.90;;
9524;SDS011;15940;48.734;9.112;2022-11-20T10:07:20;1.10;;;1.00;;
9524;SDS011;15940;48.734;9.112;2022-11-20T10:09:54;1.90;;;0.97;;
9524;SDS011;15940;48.734;9.112;2022-11-20T10:12:24;1.43;;;1.10;;
9524;SDS011;15940;48.734;9.112;2022-11-20T10:15:03;1.23;;;1.10;;
9524;SDS011;15940;48.734;9.112;2022-11-20T10:17:54;1.20;;;1.20;;
9524;SDS011;15940;48.734;9.112;2022-11-20T10:20:38;1.00;;;0.97;;
9524;SDS011;15940;48.734;9.112;2022-11-20T10:23:17;1.33;;;1.30;;
9524;SDS011;15940;48.734;9.112;2022-11-20T10:26:16;1.37;;;1.27;;
9524;SDS011;15940;48.734;9.112;2022-11-20T10:28:56;1.40;;;1.20;;
9524;SDS011;15940;48.734;9.112;2022-11-20T10:31:37;1.33;;;1.17;;
9524;SDS011;15940;48.734;9.112;2022-11-20T10:34:14;1.20;;;1.20;;
9524;SDS011;15940;48.734;9.112;2022-11-20T10:36:49;1.50;;;1.40;;
9524;SDS011;15940;48.734;9.112;2022-11-20T10:39:22;1.37;;;1.27;;
9524;SDS011;15940;48.734;9.112;2022-11-20T10:41:59;1.00;;;1.00;;
9524;SDS011;15940;48.734;9.112;2022-11-20T10:44:27;1.60;;;1.40;;
9524;SDS011;15940;48.734;9.112;2022-11-20T10:47:13;1.17;;;1.10;;
9524;SDS011;15940;48.734;9.112;2022-11-20T10:49:44;1.30;;;1.20;;
9524;SDS011;15940;48.734;9.112;2022-11-20T10:52:19;1.40;;;1.30;;
9524;SDS011;15940;48.734;9.112;2022-11-20T10:54:54;1.40;;;1.30;;
9524;SDS011;15940;48.734;9.112;2022-11-20T10:57:31;1.13;;;1.13;;
9524;SDS011;15940;48.734;9.112;2022-11-20T11:00:16;1.50;;;1.40;;
9524;SDS011;15940;48.734;9.112;2022-11-20T11:02:44;2.83;;;1.37;;
9524;SDS011;15940;48.734;9.112;2022-11-20T11:05:18;1.20;;;1.20;;
9524;SDS011;15940;48.734;9.112;2022-11-20T11:07:58;1.90;;;1.57;;
9524;SDS011;15940;48.734;9.112;2022-11-20T11:10:27;1.33;;;1.23;;
9524;SDS011;15940;48.734;9.112;2022-11-20T11:13:02;1.10;;;1.10;;
9524;SDS011;15940;48.734;9.112;2022-11-20T11:15:30;1.30;;;1.30;;
9524;SDS011;15940;48.734;9.112;2022-11-20T11:18:05;1.80;;;1.30;;
9524;SDS011;15940;48.734;9.112;2022-11-20T11:20:36;1.97;;;1.40;;
9524;SDS011;15940;48.734;9.112;2022-11-20T11:23:05;3.10;;;1.70;;
9524;SDS011;15940;48.734;9.112;2022-11-20T11:25:57;1.80;;;1.40;;
9524;SDS011;15940;48.734;9.112;2022-11-20T11:28:26;1.67;;;1.57;;
9524;SDS011;15940;48.734;9.112;2022-11-20T11:30:54;1.40;;;1.30;;
9524;SDS011;15940;48.734;9.112;2022-11-20T11:33:22;1.60;;;1.50;;
9524;SDS011;15940;48.734;9.112;2022-11-20T11:35:52;1.60;;;1.50;;
9524;SDS011;15940;48.734;9.112;2022-11-20T11:38:23;2.63;;;1.90;;
9524;SDS011;15940;48.734;9.112;2022-11-20T11:40:59;1.60;;;1.50;;
9524;SDS011;15940;48.734;9.112;2022-11-20T11:43:28;3.23;;;1.60;;
9524;SDS011;15940;48.734;9.112;2022-11-20T11:46:27;3.13;;;1.70;;
9524;SDS011;15940;48.734;9.112;2022-11-20T11:48:59;2.27;;;1.40;;
9524;SDS011;15940;48.734;9.112;2022-11-20T11:51:41;3.50;;;1.70;;
9524;SDS011;15940;48.734;9.112;2022-11-20T11:54:23;2.27;;;1.60;;
9524;SDS011;15940;48.734;9.112;2022-11-20T11:56:54;1.67;;;1.57;;
9524;SDS011;15940;48.734;9.112;2022-11-20T11:59:27;2.00;;;1.50;;
9524;SDS011;15940;48.734;9.112;2022-11-20T12:02:11;2.60;;;1.30;;
9524;SDS011;15940;48.734;9.112;2022-11-20T12:04:59;1.37;;;1.27;;
9524;SDS011;15940;48.734;9.112;2022-11-20T12:07:39;2.70;;;1.27;;
9524;SDS011;15940;48.734;9.112;2022-11-20T12:10:14;3.33;;;1.50;;
9524;SDS011;15940;48.734;9.112;2022-11-20T12:12:48;3.70;;;1.73;;
9524;SDS011;15940;48.734;9.112;2022-11-20T12:15:26;2.37;;;1.50;;
9524;SDS011;15940;48.734;9.112;2022-11-20T12:17:57;2.27;;;1.47;;
9524;SDS011;15940;48.734;9.112;2022-11-20T12:20:25;2.30;;;1.30;;
9524;SDS011;15940;48.734;9.112;2022-11-20T12:22:59;2.23;;;1.47;;
9524;SDS011;15940;48.734;9.112;2022-11-20T12:25:34;1.90;;;1.20;;
9524;SDS011;15940;48.734;9.112;2022-11-20T12:28:06;3.43;;;1.30;;
9524;SDS011;15940;48.734;9.112;2022-11-20T12:30:51;2.60;;;1.10;;
9524;SDS011;15940;48.734;9.112;2022-11-20T12:33:43;1.73;;;1.50;;
9524;SDS011;15940;48.734;9.112;2022-11-20T12:36:28;4.27;;;1.30;;
9524;SDS011;15940;48.734;9.112;2022-11-20T12:39:15;1.50;;;1.03;;
9524;SDS011;15940;48.734;9.112;2022-11-20T12:42:04;1.57;;;1.13;;
9524;SDS011;15940;48.734;9.112;2022-11-20T12:45:10;1.30;;;1.10;;
9524;SDS011;15940;48.734;9.112;2022-11-20T12:48:13;2.20;;;1.20;;
9524;SDS011;15940;48.734;9.112;2022-11-20T12:51:05;5.90;;;3.07;;
9524;SDS011;15940;48.734;9.112;2022-11-20T12:54:05;2.37;;;1.73;;
9524;SDS011;15940;48.734;9.112;2022-11-20T12:57:02;1.43;;;1.20;;
9524;SDS011;15940;48.734;9.112;2022-11-20T12:59:43;2.33;;;1.30;;
9524;SDS011;15940;48.734;9.112;2022-11-20T13:02:30;1.20;;;1.20;;
9524;SDS011;15940;48.734;9.112;2022-11-20T13:05:19;1.50;;;1.20;;
9524;SDS011;15940;48.734;9.112;2022-11-20T13:07:54;2.43;;;0.90;;
9524;SDS011;15940;48.734;9.112;2022-11-20T13:10:26;1.97;;;1.10;;
9524;SDS011;15940;48.734;9.112;2022-11-20T13:13:03;1.50;;;1.37;;
9524;SDS011;15940;48.734;9.112;2022-11-20T13:15:43;1.77;;;0.90;;
9524;SDS011;15940;48.734;9.112;2022-11-20T13:18:18;3.60;;;1.20;;
9524;SDS011;15940;48.734;9.112;2022-11-20T13:20:45;1.63;;;1.13;;
9524;SDS011;15940;48.734;9.112;2022-11-20T13:23:23;2.13;;;1.07;;
9524;SDS011;15940;48.734;9.112;2022-11-20T13:26:03;5.97;;;1.10;;
9524;SDS011;15940;48.734;9.112;2022-11-20T13:28:39;1.37;;;1.00;;
9524;SDS011;15940;48.734;9.112;2022-11-20T13:31:09;2.03;;;1.40;;
9524;SDS011;15940;48.734;9.112;2022-11-20T13:33:59;1.20;;;1.10;;
9524;SDS011;15940;48.734;9.112;2022-11-20T13:36:30;0.90;;;0.90;;
9524;SDS011;15940;48.734;9.112;2022-11-20T13:38:57;1.27;;;0.90;;
9524;SDS011;15940;48.734;9.112;2022-11-20T13:41:27;3.20;;;1.50;;
9524;SDS011;15940;48.734;9.112;2022-11-20T13:43:59;1.83;;;1.20;;
9524;SDS011;15940;48.734;9.112;2022-11-20T13:46:37;1.93;;;1.63;;
9524;SDS011;15940;48.734;9.112;2022-11-20T13:49:08;1.60;;;1.40;;
9524;SDS011;15940;48.734;9.112;2022-11-20T13:51:48;1.60;;;1.40;;
9524;SDS011;15940;48.734;9.112;2022-11-20T13:54:21;2.00;;;1.23;;
9524;SDS011;15940;48.734;9.112;2022-11-20T14:00:30;1.47;;;1.17;;
9524;SDS011;15940;48.734;9.112;2022-11-20T14:03:07;1.50;;;1.37;;
9524;SDS011;15940;48.734;9.112;2022-11-20T14:05:46;1.30;;;1.20;;
9524;SDS011;15940;48.734;9.112;2022-11-20T14:08:23;1.23;;;1.13;;
9524;SDS011;15940;48.734;9.112;2022-11-20T14:11:04;4.30;;;1.40;;
9524;SDS011;15940;48.734;9.112;2022-11-20T14:13:39;2.13;;;1.40;;
9524;SDS011;15940;48.734;9.112;2022-11-20T14:16:25;2.40;;;1.20;;
9524;SDS011;15940;48.734;9.112;2022-11-20T14:18:54;2.47;;;1.17;;
9524;SDS011;15940;48.734;9.112;2022-11-20T14:21:24;1.90;;;1.37;;
9524;SDS011;15940;48.734;9.112;2022-11-20T14:23:53;1.40;;;1.03;;
9524;SDS011;15940;48.734;9.112;2022-11-20T14:26:28;2.43;;;1.80;;
9524;SDS011;15940;48.734;9.112;2022-11-20T14:28:57;2.03;;;1.27;;
9524;SDS011;15940;48.734;9.112;2022-11-20T14:31:25;2.33;;;2.10;;
9524;SDS011;15940;48.734;9.112;2022-11-20T14:33:53;2.30;;;2.10;;
9524;SDS011;15940;48.734;9.112;2022-11-20T14:36:22;2.10;;;1.37;;
9524;SDS011;15940;48.734;9.112;2022-11-20T14:38:51;4.07;;;1.70;;
9524;SDS011;15940;48.734;9.112;2022-11-20T14:41:20;1.70;;;1.40;;
9524;SDS011;15940;48.734;9.112;2022-11-20T14:43:50;1.53;;;1.43;;
9524;SDS011;15940;48.734;9.112;2022-11-20T14:46:23;3.03;;;1.40;;
9524;SDS011;15940;48.734;9.112;2022-11-20T14:48:51;1.70;;;1.47;;
9524;SDS011;15940;48.734;9.112;2022-11-20T14:51:28;3.07;;;1.50;;
9524;SDS011;15940;48.734;9.112;2022-11-20T14:54:11;1.60;;;1.50;;
9524;SDS011;15940;48.734;9.112;2022-11-20T14:56:40;3.80;;;2.30;;
9524;SDS011;15940;48.734;9.112;2022-11-20T14:59:08;2.83;;;1.73;;
9524;SDS011;15940;48.734;9.112;2022-11-20T15:01:37;2.03;;;1.63;;
9524;SDS011;15940;48.734;9.112;2022-11-20T15:04:05;2.10;;;1.50;;
9524;SDS011;15940;48.734;9.112;2022-11-20T15:06:35;3.63;;;1.70;;
9524;SDS011;15940;48.734;9.112;2022-11-20T15:09:03;2.03;;;1.90;;
9524;SDS011;15940;48.734;9.112;2022-11-20T15:11:31;2.60;;;2.40;;
9524;SDS011;15940;48.734;9.112;2022-11-20T15:14:02;2.77;;;1.80;;
9524;SDS011;15940;48.734;9.112;2022-11-20T15:16:32;3.23;;;1.93;;
9524;SDS011;15940;48.734;9.112;2022-11-20T15:19:01;3.53;;;1.83;;
9524;SDS011;15940;48.734;9.112;2022-11-20T15:21:30;2.50;;;1.63;;
9524;SDS011;15940;48.734;9.112;2022-11-20T15:23:57;2.73;;;2.10;;
9524;SDS011;15940;48.734;9.112;2022-11-20T15:26:26;2.23;;;1.60;;
9524;SDS011;15940;48.734;9.112;2022-11-20T15:28:54;1.63;;;1.53;;
9524;SDS011;15940;48.734;9.112;2022-11-20T15:31:21;2.30;;;1.93;;
9524;SDS011;15940;48.734;9.112;2022-11-20T15:33:49;2.37;;;1.90;;
9524;SDS011;15940;48.734;9.112;2022-11-20T15:36:18;3.37;;;1.70;;